sensor_id;sensor_type;location;lat;lon;timestamp;temperature;humidity
11126;DHT22;5617;54.046;10.676;2023-04-25T00:00:12;8.90;99.90
11126;DHT22;5617;54.046;10.676;2023-04-25T00:02:20;8.90;99.90
11126;DHT22;5617;54.046;10.676;2023-04-25T00:04:30;8.90;99.90
11126;DHT22;5617;54.046;10.676;2023-04-25T00:06:39;8.90;99.90
11126;DHT22;5617;54.046;10.676;2023-04-25T00:08:48;8.90;99.90
11126;DHT22;5617;54.046;10.676;2023-04-25T00:10:56;8.90;99.90
11126;DHT22;5617;54.046;10.676;2023-04-25T00:13:03;8.80;99.90
11126;DHT22;5617;54.046;10.676;2023-04-25T00:15:12;8.80;99.90
11126;DHT22;5617;54.046;10.676;2023-04-25T00:17:20;8.80;99.90
11126;DHT22;5617;54.046;10.676;2023-04-25T00:19:30;8.80;99.90
11126;DHT22;5617;54.046;10.676;2023-04-25T00:21:39;8.80;99.90
11126;DHT22;5617;54.046;10.676;2023-04-25T00:23:47;8.80;99.90
11126;DHT22;5617;54.046;10.676;2023-04-25T00:25:55;8.80;99.90
11126;DHT22;5617;54.046;10.676;2023-04-25T00:28:03;8.70;99.90
11126;DHT22;5617;54.046;10.676;2023-04-25T00:30:12;8.70;99.90
11126;DHT22;5617;54.046;10.676;2023-04-25T00:32:20;8.70;99.90
11126;DHT22;5617;54.046;10.676;2023-04-25T00:34:29;8.70;99.90
11126;DHT22;5617;54.046;10.676;2023-04-25T00:36:37;8.70;99.90
11126;DHT22;5617;54.046;10.676;2023-04-25T00:38:55;8.60;99.90
11126;DHT22;5617;54.046;10.676;2023-04-25T00:41:02;8.60;99.90
11126;DHT22;5617;54.046;10.676;2023-04-25T00:43:11;8.60;99.90
11126;DHT22;5617;54.046;10.676;2023-04-25T00:45:19;8.50;99.90
11126;DHT22;5617;54.046;10.676;2023-04-25T00:47:28;8.50;99.90
11126;DHT22;5617;54.046;10.676;2023-04-25T00:49:37;8.60;99.90
11126;DHT22;5617;54.046;10.676;2023-04-25T00:51:45;8.50;99.90
11126;DHT22;5617;54.046;10.676;2023-04-25T00:53:54;8.50;99.90
11126;DHT22;5617;54.046;10.676;2023-04-25T00:56:02;8.40;99.90
11126;DHT22;5617;54.046;10.676;2023-04-25T00:58:10;8.40;99.90
11126;DHT22;5617;54.046;10.676;2023-04-25T01:00:18;8.40;99.90
11126;DHT22;5617;54.046;10.676;2023-04-25T01:02:27;8.40;99.90
11126;DHT22;5617;54.046;10.676;2023-04-25T01:04:38;8.40;99.90
11126;DHT22;5617;54.046;10.676;2023-04-25T01:06:46;8.40;99.90
11126;DHT22;5617;54.046;10.676;2023-04-25T01:08:54;8.30;99.90
11126;DHT22;5617;54.046;10.676;2023-04-25T01:11:02;8.30;99.90
11126;DHT22;5617;54.046;10.676;2023-04-25T01:13:09;8.30;99.90
11126;DHT22;5617;54.046;10.676;2023-04-25T01:15:18;8.30;99.90
11126;DHT22;5617;54.046;10.676;2023-04-25T01:17:25;8.30;99.90
11126;DHT22;5617;54.046;10.676;2023-04-25T01:19:33;8.30;99.90
11126;DHT22;5617;54.046;10.676;2023-04-25T01:21:43;8.30;99.90
11126;DHT22;5617;54.046;10.676;2023-04-25T01:23:52;8.30;99.90
11126;DHT22;5617;54.046;10.676;2023-04-25T01:26:01;8.30;99.90
11126;DHT22;5617;54.046;10.676;2023-04-25T01:28:10;8.30;99.90
11126;DHT22;5617;54.046;10.676;2023-04-25T01:30:18;8.30;99.90
11126;DHT22;5617;54.046;10.676;2023-04-25T01:32:26;8.20;99.90
11126;DHT22;5617;54.046;10.676;2023-04-25T01:34:34;8.20;99.90
11126;DHT22;5617;54.046;10.676;2023-04-25T01:36:43;8.30;99.90
11126;DHT22;5617;54.046;10.676;2023-04-25T01:38:51;8.20;99.90
11126;DHT22;5617;54.046;10.676;2023-04-25T01:40:59;8.20;99.90
11126;DHT22;5617;54.046;10.676;2023-04-25T01:43:07;8.20;99.90
11126;DHT22;5617;54.046;10.676;2023-04-25T01:45:50;8.20;99.90
11126;DHT22;5617;54.046;10.676;2023-04-25T01:47:58;8.20;99.90
11126;DHT22;5617;54.046;10.676;2023-04-25T01:50:08;8.20;99.90
11126;DHT22;5617;54.046;10.676;2023-04-25T01:52:17;8.20;99.90
11126;DHT22;5617;54.046;10.676;2023-04-25T01:54:25;8.20;99.90
11126;DHT22;5617;54.046;10.676;2023-04-25T01:56:35;8.20;99.90
11126;DHT22;5617;54.046;10.676;2023-04-25T01:58:43;8.10;99.90
11126;DHT22;5617;54.046;10.676;2023-04-25T02:00:51;8.10;99.90
11126;DHT22;5617;54.046;10.676;2023-04-25T02:02:59;8.10;99.90
11126;DHT22;5617;54.046;10.676;2023-04-25T02:05:07;8.00;99.90
11126;DHT22;5617;54.046;10.676;2023-04-25T02:07:16;8.00;99.90
11126;DHT22;5617;54.046;10.676;2023-04-25T02:09:24;8.00;99.90
11126;DHT22;5617;54.046;10.676;2023-04-25T02:11:32;8.00;99.90
11126;DHT22;5617;54.046;10.676;2023-04-25T02:13:40;7.90;99.90
11126;DHT22;5617;54.046;10.676;2023-04-25T02:15:48;7.90;99.90
11126;DHT22;5617;54.046;10.676;2023-04-25T02:17:56;7.90;99.90
11126;DHT22;5617;54.046;10.676;2023-04-25T02:20:05;7.90;99.90
11126;DHT22;5617;54.046;10.676;2023-04-25T02:22:13;7.80;99.90
11126;DHT22;5617;54.046;10.676;2023-04-25T02:24:23;7.80;99.90
11126;DHT22;5617;54.046;10.676;2023-04-25T02:26:31;7.90;99.90
11126;DHT22;5617;54.046;10.676;2023-04-25T02:28:38;7.80;99.90
11126;DHT22;5617;54.046;10.676;2023-04-25T02:30:49;7.70;99.90
11126;DHT22;5617;54.046;10.676;2023-04-25T02:32:56;7.80;99.90
11126;DHT22;5617;54.046;10.676;2023-04-25T02:35:05;7.70;99.90
11126;DHT22;5617;54.046;10.676;2023-04-25T02:37:13;7.70;99.90
11126;DHT22;5617;54.046;10.676;2023-04-25T02:39:23;7.60;99.90
11126;DHT22;5617;54.046;10.676;2023-04-25T02:41:31;7.60;99.90
11126;DHT22;5617;54.046;10.676;2023-04-25T02:43:38;7.50;99.90
11126;DHT22;5617;54.046;10.676;2023-04-25T02:45:46;7.50;99.90
11126;DHT22;5617;54.046;10.676;2023-04-25T02:47:53;7.50;99.90
11126;DHT22;5617;54.046;10.676;2023-04-25T02:50:01;7.40;99.90
11126;DHT22;5617;54.046;10.676;2023-04-25T02:52:09;7.30;99.90
11126;DHT22;5617;54.046;10.676;2023-04-25T02:54:17;7.30;99.90
11126;DHT22;5617;54.046;10.676;2023-04-25T02:56:26;7.20;99.90
11126;DHT22;5617;54.046;10.676;2023-04-25T02:58:33;7.20;99.90
11126;DHT22;5617;54.046;10.676;2023-04-25T03:00:41;7.10;99.90
11126;DHT22;5617;54.046;10.676;2023-04-25T03:02:50;7.10;99.90
11126;DHT22;5617;54.046;10.676;2023-04-25T03:04:58;7.10;99.90
11126;DHT22;5617;54.046;10.676;2023-04-25T03:07:06;7.00;99.90
11126;DHT22;5617;54.046;10.676;2023-04-25T03:09:14;7.00;99.90
11126;DHT22;5617;54.046;10.676;2023-04-25T03:11:22;6.90;99.90
11126;DHT22;5617;54.046;10.676;2023-04-25T03:13:31;6.80;99.90
11126;DHT22;5617;54.046;10.676;2023-04-25T03:15:38;6.80;99.90
11126;DHT22;5617;54.046;10.676;2023-04-25T03:17:46;6.70;99.90
11126;DHT22;5617;54.046;10.676;2023-04-25T03:19:54;6.70;99.90
11126;DHT22;5617;54.046;10.676;2023-04-25T03:22:02;6.70;99.90
11126;DHT22;5617;54.046;10.676;2023-04-25T03:24:10;6.60;99.90
11126;DHT22;5617;54.046;10.676;2023-04-25T03:26:18;6.60;99.90
11126;DHT22;5617;54.046;10.676;2023-04-25T03:28:27;6.60;99.90
11126;DHT22;5617;54.046;10.676;2023-04-25T03:30:36;6.50;99.90
11126;DHT22;5617;54.046;10.676;2023-04-25T03:32:44;6.50;99.90
11126;DHT22;5617;54.046;10.676;2023-04-25T03:34:52;6.50;99.90
11126;DHT22;5617;54.046;10.676;2023-04-25T03:36:59;6.40;99.90
11126;DHT22;5617;54.046;10.676;2023-04-25T03:39:07;6.40;99.90
11126;DHT22;5617;54.046;10.676;2023-04-25T03:41:15;6.40;99.90
11126;DHT22;5617;54.046;10.676;2023-04-25T03:43:23;6.40;99.90
11126;DHT22;5617;54.046;10.676;2023-04-25T03:45:30;6.30;99.90
11126;DHT22;5617;54.046;10.676;2023-04-25T03:47:39;6.30;99.90
11126;DHT22;5617;54.046;10.676;2023-04-25T03:49:47;6.30;99.90
11126;DHT22;5617;54.046;10.676;2023-04-25T03:51:58;6.30;99.90
11126;DHT22;5617;54.046;10.676;2023-04-25T03:54:06;6.30;99.90
11126;DHT22;5617;54.046;10.676;2023-04-25T03:56:14;6.20;99.90
11126;DHT22;5617;54.046;10.676;2023-04-25T03:58:22;6.20;99.90
11126;DHT22;5617;54.046;10.676;2023-04-25T04:00:30;6.20;99.90
11126;DHT22;5617;54.046;10.676;2023-04-25T04:02:40;6.20;99.90
11126;DHT22;5617;54.046;10.676;2023-04-25T04:04:50;6.20;99.90
11126;DHT22;5617;54.046;10.676;2023-04-25T04:06:58;6.10;99.90
11126;DHT22;5617;54.046;10.676;2023-04-25T04:09:06;6.10;99.90
11126;DHT22;5617;54.046;10.676;2023-04-25T04:11:17;6.10;99.90
11126;DHT22;5617;54.046;10.676;2023-04-25T04:13:25;6.10;99.90
11126;DHT22;5617;54.046;10.676;2023-04-25T04:15:33;6.10;99.90
11126;DHT22;5617;54.046;10.676;2023-04-25T04:17:48;6.10;99.90
11126;DHT22;5617;54.046;10.676;2023-04-25T04:19:56;6.10;99.90
11126;DHT22;5617;54.046;10.676;2023-04-25T04:22:04;6.10;99.90
11126;DHT22;5617;54.046;10.676;2023-04-25T04:24:12;6.10;99.90
11126;DHT22;5617;54.046;10.676;2023-04-25T04:26:19;6.10;99.90
11126;DHT22;5617;54.046;10.676;2023-04-25T04:28:29;6.10;99.90
11126;DHT22;5617;54.046;10.676;2023-04-25T04:30:37;6.10;99.90
11126;DHT22;5617;54.046;10.676;2023-04-25T04:32:53;6.20;99.90
11126;DHT22;5617;54.046;10.676;2023-04-25T04:35:01;6.20;99.90
11126;DHT22;5617;54.046;10.676;2023-04-25T04:37:10;6.20;99.90
11126;DHT22;5617;54.046;10.676;2023-04-25T04:39:19;6.30;99.90
11126;DHT22;5617;54.046;10.676;2023-04-25T04:41:27;6.30;99.90
11126;DHT22;5617;54.046;10.676;2023-04-25T04:43:35;6.30;99.90
11126;DHT22;5617;54.046;10.676;2023-04-25T04:45:43;6.30;99.90
11126;DHT22;5617;54.046;10.676;2023-04-25T04:47:52;6.40;99.90
11126;DHT22;5617;54.046;10.676;2023-04-25T04:50:01;6.40;99.90
11126;DHT22;5617;54.046;10.676;2023-04-25T04:52:10;6.40;99.90
11126;DHT22;5617;54.046;10.676;2023-04-25T04:54:18;6.40;99.90
11126;DHT22;5617;54.046;10.676;2023-04-25T04:56:25;6.50;99.90
11126;DHT22;5617;54.046;10.676;2023-04-25T04:58:34;6.50;99.90
11126;DHT22;5617;54.046;10.676;2023-04-25T05:00:43;6.50;99.90
11126;DHT22;5617;54.046;10.676;2023-04-25T05:02:51;6.50;99.90
11126;DHT22;5617;54.046;10.676;2023-04-25T05:05:00;6.50;99.90
11126;DHT22;5617;54.046;10.676;2023-04-25T05:07:08;6.50;99.90
11126;DHT22;5617;54.046;10.676;2023-04-25T05:09:16;6.60;99.90
11126;DHT22;5617;54.046;10.676;2023-04-25T05:11:25;6.60;99.90
11126;DHT22;5617;54.046;10.676;2023-04-25T05:13:33;6.60;99.90
11126;DHT22;5617;54.046;10.676;2023-04-25T05:15:41;6.70;99.90
11126;DHT22;5617;54.046;10.676;2023-04-25T05:17:49;6.80;99.90
11126;DHT22;5617;54.046;10.676;2023-04-25T05:19:56;6.80;99.90
11126;DHT22;5617;54.046;10.676;2023-04-25T05:22:05;6.90;99.90
11126;DHT22;5617;54.046;10.676;2023-04-25T05:24:13;6.90;99.90
11126;DHT22;5617;54.046;10.676;2023-04-25T05:26:21;6.90;99.90
11126;DHT22;5617;54.046;10.676;2023-04-25T05:28:29;6.90;99.90
11126;DHT22;5617;54.046;10.676;2023-04-25T05:30:37;7.00;99.90
11126;DHT22;5617;54.046;10.676;2023-04-25T05:32:44;7.00;99.90
11126;DHT22;5617;54.046;10.676;2023-04-25T05:34:53;7.00;99.90
11126;DHT22;5617;54.046;10.676;2023-04-25T05:37:01;7.10;99.90
11126;DHT22;5617;54.046;10.676;2023-04-25T05:39:10;7.10;99.90
11126;DHT22;5617;54.046;10.676;2023-04-25T05:41:18;7.10;99.90
11126;DHT22;5617;54.046;10.676;2023-04-25T05:43:26;7.20;99.90
11126;DHT22;5617;54.046;10.676;2023-04-25T05:45:34;7.20;99.90
11126;DHT22;5617;54.046;10.676;2023-04-25T05:47:42;7.30;99.90
11126;DHT22;5617;54.046;10.676;2023-04-25T05:49:50;7.30;99.90
11126;DHT22;5617;54.046;10.676;2023-04-25T05:51:58;7.30;99.90
11126;DHT22;5617;54.046;10.676;2023-04-25T05:54:05;7.30;99.90
11126;DHT22;5617;54.046;10.676;2023-04-25T05:56:14;7.30;99.90
11126;DHT22;5617;54.046;10.676;2023-04-25T05:58:22;7.40;99.90
11126;DHT22;5617;54.046;10.676;2023-04-25T06:00:30;7.40;99.90
11126;DHT22;5617;54.046;10.676;2023-04-25T06:02:38;7.40;99.90
11126;DHT22;5617;54.046;10.676;2023-04-25T06:04:46;7.50;99.90
11126;DHT22;5617;54.046;10.676;2023-04-25T06:06:54;7.60;99.90
11126;DHT22;5617;54.046;10.676;2023-04-25T06:09:03;7.70;99.90
11126;DHT22;5617;54.046;10.676;2023-04-25T06:11:11;7.90;99.90
11126;DHT22;5617;54.046;10.676;2023-04-25T06:13:21;7.90;99.90
11126;DHT22;5617;54.046;10.676;2023-04-25T06:15:29;8.00;99.90
11126;DHT22;5617;54.046;10.676;2023-04-25T06:17:38;8.00;99.90
11126;DHT22;5617;54.046;10.676;2023-04-25T06:19:46;8.20;99.90
11126;DHT22;5617;54.046;10.676;2023-04-25T06:21:54;8.30;99.90
11126;DHT22;5617;54.046;10.676;2023-04-25T06:24:02;8.40;99.90
11126;DHT22;5617;54.046;10.676;2023-04-25T06:26:10;8.30;99.90
11126;DHT22;5617;54.046;10.676;2023-04-25T06:28:19;8.30;99.90
11126;DHT22;5617;54.046;10.676;2023-04-25T06:30:28;8.30;99.90
11126;DHT22;5617;54.046;10.676;2023-04-25T06:32:36;8.20;99.90
11126;DHT22;5617;54.046;10.676;2023-04-25T06:34:44;8.10;99.90
11126;DHT22;5617;54.046;10.676;2023-04-25T06:36:53;8.10;99.80
11126;DHT22;5617;54.046;10.676;2023-04-25T06:39:01;8.10;99.80
11126;DHT22;5617;54.046;10.676;2023-04-25T06:41:09;8.10;99.90
11126;DHT22;5617;54.046;10.676;2023-04-25T06:43:17;8.10;99.90
11126;DHT22;5617;54.046;10.676;2023-04-25T06:45:26;8.10;99.80
11126;DHT22;5617;54.046;10.676;2023-04-25T06:47:34;8.10;99.80
11126;DHT22;5617;54.046;10.676;2023-04-25T06:49:42;8.10;99.90
11126;DHT22;5617;54.046;10.676;2023-04-25T06:51:50;8.10;99.90
11126;DHT22;5617;54.046;10.676;2023-04-25T06:53:58;8.00;99.90
11126;DHT22;5617;54.046;10.676;2023-04-25T06:56:06;8.00;99.90
11126;DHT22;5617;54.046;10.676;2023-04-25T06:58:14;8.00;99.90
11126;DHT22;5617;54.046;10.676;2023-04-25T07:00:22;8.00;99.90
11126;DHT22;5617;54.046;10.676;2023-04-25T07:02:31;8.00;99.90
11126;DHT22;5617;54.046;10.676;2023-04-25T07:04:39;8.00;99.90
11126;DHT22;5617;54.046;10.676;2023-04-25T07:06:50;8.00;99.90
11126;DHT22;5617;54.046;10.676;2023-04-25T07:08:58;7.90;99.90
11126;DHT22;5617;54.046;10.676;2023-04-25T07:11:06;8.00;99.90
11126;DHT22;5617;54.046;10.676;2023-04-25T07:13:13;8.00;99.90
11126;DHT22;5617;54.046;10.676;2023-04-25T07:15:21;8.10;99.90
11126;DHT22;5617;54.046;10.676;2023-04-25T07:17:31;8.20;99.90
11126;DHT22;5617;54.046;10.676;2023-04-25T07:19:39;8.30;99.90
11126;DHT22;5617;54.046;10.676;2023-04-25T07:21:47;8.40;99.90
11126;DHT22;5617;54.046;10.676;2023-04-25T07:23:54;8.50;99.80
11126;DHT22;5617;54.046;10.676;2023-04-25T07:26:02;8.50;99.50
11126;DHT22;5617;54.046;10.676;2023-04-25T07:28:10;8.50;99.20
11126;DHT22;5617;54.046;10.676;2023-04-25T07:30:18;8.60;99.30
11126;DHT22;5617;54.046;10.676;2023-04-25T07:32:31;8.60;99.00
11126;DHT22;5617;54.046;10.676;2023-04-25T07:34:39;8.70;99.10
11126;DHT22;5617;54.046;10.676;2023-04-25T07:36:48;8.80;99.10
11126;DHT22;5617;54.046;10.676;2023-04-25T07:38:56;9.00;99.10
11126;DHT22;5617;54.046;10.676;2023-04-25T07:41:04;9.00;98.90
11126;DHT22;5617;54.046;10.676;2023-04-25T07:43:12;8.90;98.40
11126;DHT22;5617;54.046;10.676;2023-04-25T07:45:22;8.90;98.40
11126;DHT22;5617;54.046;10.676;2023-04-25T07:47:32;8.90;98.40
11126;DHT22;5617;54.046;10.676;2023-04-25T07:49:40;8.90;98.50
11126;DHT22;5617;54.046;10.676;2023-04-25T07:51:48;8.80;98.50
11126;DHT22;5617;54.046;10.676;2023-04-25T07:53:55;8.90;98.30
11126;DHT22;5617;54.046;10.676;2023-04-25T07:56:03;8.80;98.00
11126;DHT22;5617;54.046;10.676;2023-04-25T07:58:11;8.80;98.20
11126;DHT22;5617;54.046;10.676;2023-04-25T08:00:19;8.80;97.90
11126;DHT22;5617;54.046;10.676;2023-04-25T08:02:27;8.70;97.80
11126;DHT22;5617;54.046;10.676;2023-04-25T08:04:36;8.80;97.80
11126;DHT22;5617;54.046;10.676;2023-04-25T08:06:45;8.80;97.80
11126;DHT22;5617;54.046;10.676;2023-04-25T08:08:53;8.90;97.60
11126;DHT22;5617;54.046;10.676;2023-04-25T08:11:01;8.90;97.40
11126;DHT22;5617;54.046;10.676;2023-04-25T08:13:09;9.00;97.40
11126;DHT22;5617;54.046;10.676;2023-04-25T08:15:17;9.00;97.30
11126;DHT22;5617;54.046;10.676;2023-04-25T08:17:25;9.00;97.40
11126;DHT22;5617;54.046;10.676;2023-04-25T08:19:33;9.10;97.40
11126;DHT22;5617;54.046;10.676;2023-04-25T08:21:42;9.10;97.40
11126;DHT22;5617;54.046;10.676;2023-04-25T08:23:49;9.10;97.10
11126;DHT22;5617;54.046;10.676;2023-04-25T08:25:57;9.10;97.00
11126;DHT22;5617;54.046;10.676;2023-04-25T08:28:05;9.10;97.00
11126;DHT22;5617;54.046;10.676;2023-04-25T08:30:13;9.20;96.70
11126;DHT22;5617;54.046;10.676;2023-04-25T08:32:22;9.10;96.60
11126;DHT22;5617;54.046;10.676;2023-04-25T08:34:30;9.10;96.60
11126;DHT22;5617;54.046;10.676;2023-04-25T08:36:38;9.20;96.40
11126;DHT22;5617;54.046;10.676;2023-04-25T08:38:47;9.40;96.40
11126;DHT22;5617;54.046;10.676;2023-04-25T08:40:57;9.60;96.50
11126;DHT22;5617;54.046;10.676;2023-04-25T08:43:07;9.70;95.90
11126;DHT22;5617;54.046;10.676;2023-04-25T08:45:18;9.90;95.60
11126;DHT22;5617;54.046;10.676;2023-04-25T08:47:26;10.00;95.10
11126;DHT22;5617;54.046;10.676;2023-04-25T08:49:35;10.10;95.00
11126;DHT22;5617;54.046;10.676;2023-04-25T08:51:45;10.10;94.50
11126;DHT22;5617;54.046;10.676;2023-04-25T08:53:56;10.20;93.80
11126;DHT22;5617;54.046;10.676;2023-04-25T08:56:26;10.10;92.50
11126;DHT22;5617;54.046;10.676;2023-04-25T08:58:35;10.00;92.10
11126;DHT22;5617;54.046;10.676;2023-04-25T09:00:43;10.00;91.80
11126;DHT22;5617;54.046;10.676;2023-04-25T09:02:57;10.10;92.00
11126;DHT22;5617;54.046;10.676;2023-04-25T09:05:06;10.10;92.30
11126;DHT22;5617;54.046;10.676;2023-04-25T09:07:16;10.10;92.00
11126;DHT22;5617;54.046;10.676;2023-04-25T09:09:29;10.10;92.10
11126;DHT22;5617;54.046;10.676;2023-04-25T09:11:37;10.00;92.10
11126;DHT22;5617;54.046;10.676;2023-04-25T09:13:45;9.90;91.90
11126;DHT22;5617;54.046;10.676;2023-04-25T09:15:55;9.90;92.20
11126;DHT22;5617;54.046;10.676;2023-04-25T09:18:03;9.80;92.20
11126;DHT22;5617;54.046;10.676;2023-04-25T09:20:12;9.70;92.40
11126;DHT22;5617;54.046;10.676;2023-04-25T09:22:21;9.60;92.30
11126;DHT22;5617;54.046;10.676;2023-04-25T09:24:35;9.50;92.70
11126;DHT22;5617;54.046;10.676;2023-04-25T09:26:43;9.40;93.10
11126;DHT22;5617;54.046;10.676;2023-04-25T09:29:05;9.20;93.60
11126;DHT22;5617;54.046;10.676;2023-04-25T09:31:21;9.10;94.70
11126;DHT22;5617;54.046;10.676;2023-04-25T09:33:32;8.90;95.40
11126;DHT22;5617;54.046;10.676;2023-04-25T09:35:43;8.80;95.80
11126;DHT22;5617;54.046;10.676;2023-04-25T09:37:51;8.90;96.20
11126;DHT22;5617;54.046;10.676;2023-04-25T09:40:05;8.90;96.40
11126;DHT22;5617;54.046;10.676;2023-04-25T09:42:15;9.00;96.50
11126;DHT22;5617;54.046;10.676;2023-04-25T09:44:24;9.10;96.70
11126;DHT22;5617;54.046;10.676;2023-04-25T09:46:33;9.10;96.90
11126;DHT22;5617;54.046;10.676;2023-04-25T09:48:48;9.20;96.90
11126;DHT22;5617;54.046;10.676;2023-04-25T09:51:07;9.40;97.00
11126;DHT22;5617;54.046;10.676;2023-04-25T09:53:15;9.70;97.00
11126;DHT22;5617;54.046;10.676;2023-04-25T09:55:24;10.00;96.90
11126;DHT22;5617;54.046;10.676;2023-04-25T09:57:32;10.20;96.50
11126;DHT22;5617;54.046;10.676;2023-04-25T09:59:44;10.40;96.00
11126;DHT22;5617;54.046;10.676;2023-04-25T10:01:52;10.70;95.80
11126;DHT22;5617;54.046;10.676;2023-04-25T10:04:03;10.90;95.30
11126;DHT22;5617;54.046;10.676;2023-04-25T10:06:17;10.80;95.20
11126;DHT22;5617;54.046;10.676;2023-04-25T10:08:31;10.80;95.20
11126;DHT22;5617;54.046;10.676;2023-04-25T10:10:41;10.60;95.20
11126;DHT22;5617;54.046;10.676;2023-04-25T10:12:49;10.40;95.00
11126;DHT22;5617;54.046;10.676;2023-04-25T10:14:58;10.20;95.00
11126;DHT22;5617;54.046;10.676;2023-04-25T10:17:07;10.10;95.10
11126;DHT22;5617;54.046;10.676;2023-04-25T10:19:17;9.90;95.30
11126;DHT22;5617;54.046;10.676;2023-04-25T10:21:27;9.90;95.50
11126;DHT22;5617;54.046;10.676;2023-04-25T10:23:37;9.90;95.70
11126;DHT22;5617;54.046;10.676;2023-04-25T10:25:46;9.90;95.80
11126;DHT22;5617;54.046;10.676;2023-04-25T10:27:54;9.90;95.80
11126;DHT22;5617;54.046;10.676;2023-04-25T10:30:03;10.10;95.80
11126;DHT22;5617;54.046;10.676;2023-04-25T10:32:13;10.20;95.80
11126;DHT22;5617;54.046;10.676;2023-04-25T10:34:24;10.10;95.70
11126;DHT22;5617;54.046;10.676;2023-04-25T10:36:50;10.20;95.40
11126;DHT22;5617;54.046;10.676;2023-04-25T10:39:03;10.10;95.40
11126;DHT22;5617;54.046;10.676;2023-04-25T10:41:18;10.00;95.20
11126;DHT22;5617;54.046;10.676;2023-04-25T10:43:34;10.00;95.30
11126;DHT22;5617;54.046;10.676;2023-04-25T10:45:51;10.00;95.30
11126;DHT22;5617;54.046;10.676;2023-04-25T10:48:00;10.40;95.20
11126;DHT22;5617;54.046;10.676;2023-04-25T10:50:09;10.80;94.50
11126;DHT22;5617;54.046;10.676;2023-04-25T10:52:24;11.20;94.00
11126;DHT22;5617;54.046;10.676;2023-04-25T10:54:32;11.70;93.40
11126;DHT22;5617;54.046;10.676;2023-04-25T10:56:42;11.80;91.50
11126;DHT22;5617;54.046;10.676;2023-04-25T10:58:51;12.00;91.60
11126;DHT22;5617;54.046;10.676;2023-04-25T11:01:01;12.20;91.70
11126;DHT22;5617;54.046;10.676;2023-04-25T11:03:08;12.20;91.80
11126;DHT22;5617;54.046;10.676;2023-04-25T11:05:22;12.00;91.90
11126;DHT22;5617;54.046;10.676;2023-04-25T11:07:38;11.70;91.70
11126;DHT22;5617;54.046;10.676;2023-04-25T11:10:04;11.60;92.40
11126;DHT22;5617;54.046;10.676;2023-04-25T11:12:14;11.60;92.40
11126;DHT22;5617;54.046;10.676;2023-04-25T11:14:23;11.60;92.50
11126;DHT22;5617;54.046;10.676;2023-04-25T11:16:30;11.50;92.30
11126;DHT22;5617;54.046;10.676;2023-04-25T11:18:41;11.30;92.20
11126;DHT22;5617;54.046;10.676;2023-04-25T11:20:49;11.10;92.30
11126;DHT22;5617;54.046;10.676;2023-04-25T11:22:57;10.90;92.50
11126;DHT22;5617;54.046;10.676;2023-04-25T11:25:07;10.70;92.90
11126;DHT22;5617;54.046;10.676;2023-04-25T11:27:16;10.50;93.80
11126;DHT22;5617;54.046;10.676;2023-04-25T11:29:26;10.20;94.60
11126;DHT22;5617;54.046;10.676;2023-04-25T11:31:34;10.10;95.30
11126;DHT22;5617;54.046;10.676;2023-04-25T11:33:43;10.00;95.90
11126;DHT22;5617;54.046;10.676;2023-04-25T11:35:53;10.00;96.00
11126;DHT22;5617;54.046;10.676;2023-04-25T11:38:01;10.10;96.00
11126;DHT22;5617;54.046;10.676;2023-04-25T11:40:10;10.10;95.80
11126;DHT22;5617;54.046;10.676;2023-04-25T11:42:19;10.00;95.70
11126;DHT22;5617;54.046;10.676;2023-04-25T11:44:28;10.00;95.80
11126;DHT22;5617;54.046;10.676;2023-04-25T11:46:36;10.10;95.80
11126;DHT22;5617;54.046;10.676;2023-04-25T11:48:44;10.10;95.70
11126;DHT22;5617;54.046;10.676;2023-04-25T11:50:53;10.10;95.20
11126;DHT22;5617;54.046;10.676;2023-04-25T11:53:01;10.10;94.30
11126;DHT22;5617;54.046;10.676;2023-04-25T11:55:10;10.00;93.70
11126;DHT22;5617;54.046;10.676;2023-04-25T11:57:21;10.00;93.40
11126;DHT22;5617;54.046;10.676;2023-04-25T11:59:29;10.00;93.70
11126;DHT22;5617;54.046;10.676;2023-04-25T12:01:38;10.00;93.80
11126;DHT22;5617;54.046;10.676;2023-04-25T12:03:46;10.00;93.90
11126;DHT22;5617;54.046;10.676;2023-04-25T12:06:02;10.10;94.00
11126;DHT22;5617;54.046;10.676;2023-04-25T12:08:11;10.10;94.30
11126;DHT22;5617;54.046;10.676;2023-04-25T12:10:20;10.20;94.30
11126;DHT22;5617;54.046;10.676;2023-04-25T12:12:32;10.30;94.30
11126;DHT22;5617;54.046;10.676;2023-04-25T12:14:40;10.40;94.40
11126;DHT22;5617;54.046;10.676;2023-04-25T12:16:48;10.60;94.30
11126;DHT22;5617;54.046;10.676;2023-04-25T12:18:57;10.80;94.40
11126;DHT22;5617;54.046;10.676;2023-04-25T12:21:06;11.10;94.30
11126;DHT22;5617;54.046;10.676;2023-04-25T12:23:14;11.30;93.80
11126;DHT22;5617;54.046;10.676;2023-04-25T12:25:35;11.50;93.70
11126;DHT22;5617;54.046;10.676;2023-04-25T12:27:44;11.60;93.40
11126;DHT22;5617;54.046;10.676;2023-04-25T12:29:54;11.90;93.30
11126;DHT22;5617;54.046;10.676;2023-04-25T12:32:02;11.70;92.70
11126;DHT22;5617;54.046;10.676;2023-04-25T12:34:11;11.40;93.00
11126;DHT22;5617;54.046;10.676;2023-04-25T12:36:19;11.20;93.30
11126;DHT22;5617;54.046;10.676;2023-04-25T12:38:28;10.90;93.70
11126;DHT22;5617;54.046;10.676;2023-04-25T12:40:36;10.70;94.10
11126;DHT22;5617;54.046;10.676;2023-04-25T12:42:45;10.60;94.30
11126;DHT22;5617;54.046;10.676;2023-04-25T12:44:53;10.60;94.60
11126;DHT22;5617;54.046;10.676;2023-04-25T12:47:01;10.70;95.00
11126;DHT22;5617;54.046;10.676;2023-04-25T12:49:09;10.90;95.30
11126;DHT22;5617;54.046;10.676;2023-04-25T12:51:26;11.20;95.20
11126;DHT22;5617;54.046;10.676;2023-04-25T12:53:34;11.30;94.60
11126;DHT22;5617;54.046;10.676;2023-04-25T12:55:44;11.20;94.10
11126;DHT22;5617;54.046;10.676;2023-04-25T12:57:55;11.30;93.80
11126;DHT22;5617;54.046;10.676;2023-04-25T13:00:03;11.50;93.60
11126;DHT22;5617;54.046;10.676;2023-04-25T13:02:15;11.90;93.50
11126;DHT22;5617;54.046;10.676;2023-04-25T13:04:22;12.20;93.20
11126;DHT22;5617;54.046;10.676;2023-04-25T13:06:30;12.30;93.20
11126;DHT22;5617;54.046;10.676;2023-04-25T13:08:38;11.90;93.40
11126;DHT22;5617;54.046;10.676;2023-04-25T13:10:47;11.60;94.00
11126;DHT22;5617;54.046;10.676;2023-04-25T13:12:57;11.20;94.40
11126;DHT22;5617;54.046;10.676;2023-04-25T13:15:05;10.80;94.90
11126;DHT22;5617;54.046;10.676;2023-04-25T13:17:18;10.50;95.30
11126;DHT22;5617;54.046;10.676;2023-04-25T13:19:27;10.30;95.60
11126;DHT22;5617;54.046;10.676;2023-04-25T13:21:34;10.10;96.00
11126;DHT22;5617;54.046;10.676;2023-04-25T13:23:42;9.80;96.40
11126;DHT22;5617;54.046;10.676;2023-04-25T13:25:51;9.70;96.60
11126;DHT22;5617;54.046;10.676;2023-04-25T13:28:01;9.80;97.10
11126;DHT22;5617;54.046;10.676;2023-04-25T13:30:10;9.90;97.30
11126;DHT22;5617;54.046;10.676;2023-04-25T13:32:18;10.30;97.50
11126;DHT22;5617;54.046;10.676;2023-04-25T13:34:26;10.50;97.80
11126;DHT22;5617;54.046;10.676;2023-04-25T13:36:33;10.80;97.80
11126;DHT22;5617;54.046;10.676;2023-04-25T13:38:41;10.70;98.00
11126;DHT22;5617;54.046;10.676;2023-04-25T13:40:50;10.60;98.10
11126;DHT22;5617;54.046;10.676;2023-04-25T13:43:01;10.70;98.20
11126;DHT22;5617;54.046;10.676;2023-04-25T13:45:09;10.80;98.40